Time;durP1;ratioP1;P1;durP2;ratioP2;P2;SDS_P1;SDS_P2;PMS_P1;PMS_P2;Temp;Humidity;BMP_temperature;BMP_pressure;BME280_temperature;BME280_humidity;BME280_pressure;Samples;Min_cycle;Max_cycle;Signal;HPM_P1;HPM_P2
2022/07/10 00:00:49;;;;;;;1.60;1.50;;;;;;;16.00;79.44;98689.31;4951887;29;20032;-89
2022/07/10 00:03:16;;;;;;;2.03;1.83;;;;;;;15.92;79.59;98675.59;4945355;29;20051;-88
2022/07/10 00:05:43;;;;;;;1.40;1.30;;;;;;;15.98;79.59;98685.31;4952746;29;20065;-88
2022/07/10 00:08:09;;;;;;;1.45;1.35;;;;;;;15.89;79.85;98676.03;4974326;28;20277;-88
2022/07/10 00:10:36;;;;;;;1.50;1.40;;;;;;;15.92;79.88;98686.19;4952663;28;20082;-88
2022/07/10 00:13:03;;;;;;;1.40;1.30;;;;;;;15.91;80.32;98681.91;4940944;28;20079;-88
2022/07/10 00:15:31;;;;;;;1.60;1.50;;;;;;;15.89;79.67;98682.13;4956842;28;20970;-89
2022/07/10 00:17:58;;;;;;;1.38;1.27;;;;;;;15.96;79.68;98676.78;4937942;28;20043;-88
2022/07/10 00:20:44;;;;;;;1.50;1.40;;;;;;;15.98;80.12;98680.00;4959663;28;20525;-88
2022/07/10 00:23:10;;;;;;;1.20;1.10;;;;;;;15.89;80.39;98670.72;4946932;29;20126;-88
2022/07/10 00:25:37;;;;;;;1.27;1.17;;;;;;;15.91;79.96;98673.97;4933612;29;20511;-88
2022/07/10 00:28:04;;;;;;;1.65;1.55;;;;;;;15.88;79.57;98672.56;4941340;29;20052;-89
2022/07/10 00:30:30;;;;;;;1.60;1.50;;;;;;;15.88;80.25;98669.13;4958389;28;20082;-88
2022/07/10 00:32:59;;;;;;;1.10;1.10;;;;;;;15.90;80.07;98664.44;4945042;29;20043;-89
2022/07/10 00:35:26;;;;;;;1.60;1.50;;;;;;;15.89;79.99;98668.09;4951721;28;20055;-89
2022/07/10 00:37:52;;;;;;;1.58;1.48;;;;;;;15.85;79.88;98664.28;4967347;28;20073;-89
2022/07/10 00:40:19;;;;;;;1.13;1.10;;;;;;;15.85;80.17;98675.66;4948290;29;20051;-89
2022/07/10 00:42:46;;;;;;;1.30;1.20;;;;;;;15.82;80.28;98675.28;4956998;28;20114;-89
2022/07/10 00:45:13;;;;;;;1.90;1.80;;;;;;;15.65;80.24;98665.28;4954504;28;20106;-88
2022/07/10 00:47:40;;;;;;;1.70;1.60;;;;;;;15.65;80.74;98669.75;4942990;28;20504;-88
2022/07/10 00:50:07;;;;;;;1.33;1.23;;;;;;;15.67;80.83;98671.16;4951160;28;20055;-89
2022/07/10 00:52:38;;;;;;;2.20;2.00;;;;;;;15.64;80.64;98682.16;4951216;29;20042;-89
2022/07/10 00:55:09;;;;;;;1.60;1.50;;;;;;;15.57;80.77;98675.28;4942929;28;20053;-88
2022/07/10 00:57:37;;;;;;;1.10;1.10;;;;;;;15.62;80.96;98675.44;4950719;28;20091;-89
2022/07/10 01:00:05;;;;;;;1.60;1.50;;;;;;;15.53;80.40;98662.53;4946308;28;20499;-89
2022/07/10 01:02:32;;;;;;;1.42;1.30;;;;;;;15.60;80.54;98678.31;4975556;28;20538;-89
2022/07/10 01:04:58;;;;;;;1.70;1.60;;;;;;;15.55;80.51;98670.22;4941975;28;20572;-89
2022/07/10 01:07:25;;;;;;;1.67;1.58;;;;;;;15.55;80.40;98672.06;4951073;29;20047;-89
2022/07/10 01:09:52;;;;;;;1.48;1.35;;;;;;;15.49;80.72;98671.09;4950120;29;20077;-89
2022/07/10 01:12:21;;;;;;;1.45;1.35;;;;;;;15.49;80.54;98673.75;4945843;29;20047;-89
2022/07/10 01:14:47;;;;;;;1.50;1.40;;;;;;;15.51;80.64;98675.13;4949469;29;20040;-89
2022/07/10 01:17:15;;;;;;;1.80;1.70;;;;;;;15.52;80.55;98681.22;4945537;28;20075;-89
2022/07/10 01:19:42;;;;;;;1.45;1.35;;;;;;;15.49;80.96;98676.38;4947855;29;20055;-89
2022/07/10 01:22:09;;;;;;;1.20;1.10;;;;;;;15.60;80.72;98680.16;4933351;29;20476;-89
2022/07/10 01:24:36;;;;;;;1.52;1.33;;;;;;;15.66;80.67;98681.97;4951916;28;20047;-89
2022/07/10 01:27:03;;;;;;;1.42;1.33;;;;;;;15.60;80.51;98678.31;4944598;28;20051;-89
2022/07/10 01:29:30;;;;;;;1.88;1.77;;;;;;;15.61;80.42;98673.84;4940941;29;20039;-89
2022/07/10 01:31:59;;;;;;;1.70;1.60;;;;;;;15.52;80.50;98675.94;4928555;29;20047;-90
2022/07/10 01:34:26;;;;;;;1.40;1.30;;;;;;;15.59;80.59;98671.41;4950819;29;20507;-90
2022/07/10 01:36:54;;;;;;;1.65;1.52;;;;;;;15.64;79.38;98671.59;4962879;28;20051;-90
2022/07/10 01:39:20;;;;;;;1.15;1.10;;;;;;;15.69;80.35;98657.72;4943334;29;20126;-90
2022/07/10 01:41:47;;;;;;;1.25;1.15;;;;;;;15.82;79.49;98675.28;4948561;29;20104;-90
2022/07/10 01:44:14;;;;;;;2.63;2.00;;;;;;;15.69;79.07;98676.22;4941038;29;20098;-90
2022/07/10 01:46:48;;;;;;;1.85;1.75;;;;;;;15.67;78.97;98673.81;4949692;29;20090;-90
2022/07/10 01:49:15;;;;;;;1.23;1.17;;;;;;;15.75;79.69;98676.16;4947365;29;20043;-90
2022/07/10 01:51:43;;;;;;;1.75;1.65;;;;;;;15.81;79.31;98677.13;4953010;28;20047;-89
2022/07/10 01:54:10;;;;;;;1.45;1.35;;;;;;;15.79;78.96;98680.00;4934743;29;20051;-90
2022/07/10 01:56:38;;;;;;;1.65;1.50;;;;;;;15.85;79.35;98685.44;4952891;28;20138;-89
2022/07/10 01:59:04;;;;;;;1.40;1.30;;;;;;;15.89;79.36;98684.75;4947154;29;20107;-89
2022/07/10 02:01:31;;;;;;;2.05;1.88;;;;;;;15.86;79.14;98684.41;4948408;29;20094;-89
2022/07/10 02:06:44;;;;;;;1.52;1.40;;;;;;;15.93;79.21;98693.09;4945319;29;20070;-89
2022/07/10 02:09:11;;;;;;;1.25;1.20;;;;;;;15.93;79.42;98690.44;4962452;28;20050;-89
2022/07/10 02:11:37;;;;;;;1.80;1.70;;;;;;;15.78;78.67;98683.66;4954216;29;20047;-89
2022/07/10 02:14:04;;;;;;;1.80;1.70;;;;;;;15.74;78.72;98690.41;4953413;29;20047;-89
2022/07/10 02:16:31;;;;;;;1.95;1.40;;;;;;;15.71;78.73;98669.72;4948968;28;20150;-88
2022/07/10 02:18:58;;;;;;;1.80;1.70;;;;;;;15.63;78.71;98679.75;4941165;29;20051;-88
2022/07/10 02:21:24;;;;;;;1.85;1.40;;;;;;;15.64;78.05;98674.22;4959279;28;20091;-89
2022/07/10 02:23:51;;;;;;;1.65;1.55;;;;;;;15.51;78.28;98680.41;4940970;29;20051;-88
2022/07/10 02:26:18;;;;;;;1.90;1.70;;;;;;;15.46;78.66;98682.09;4974281;28;20535;-88
2022/07/10 02:28:44;;;;;;;1.38;1.27;;;;;;;15.37;78.45;98684.22;4947479;28;20051;-88
2022/07/10 02:31:11;;;;;;;1.30;1.20;;;;;;;15.39;78.58;98692.72;4949755;28;20114;-89
2022/07/10 02:33:38;;;;;;;1.33;1.23;;;;;;;15.33;78.66;98692.78;4952815;28;20047;-89
2022/07/10 02:36:05;;;;;;;1.95;1.85;;;;;;;15.12;77.92;98692.13;4923858;29;20102;-89
2022/07/10 02:38:32;;;;;;;1.30;1.20;;;;;;;15.19;78.02;98700.81;4946084;29;20093;-88
2022/07/10 02:40:58;;;;;;;1.65;1.48;;;;;;;15.03;77.74;98703.97;4966424;28;20047;-89
2022/07/10 02:43:25;;;;;;;1.35;1.25;;;;;;;15.04;77.52;98696.84;4954039;28;20078;-89
2022/07/10 02:45:52;;;;;;;1.25;1.23;;;;;;;15.14;77.20;98703.28;4941100;29;20055;-89
2022/07/10 02:48:18;;;;;;;1.15;1.13;;;;;;;15.18;77.36;98704.47;4951679;29;20043;-88
2022/07/10 02:50:45;;;;;;;1.40;1.30;;;;;;;15.14;76.38;98698.00;4966570;28;20095;-89
2022/07/10 02:53:12;;;;;;;1.42;1.20;;;;;;;15.14;77.09;98695.34;4952689;29;20078;-88
2022/07/10 02:55:38;;;;;;;1.20;1.02;;;;;;;15.02;76.52;98694.41;4933301;29;20496;-89
2022/07/10 02:58:05;;;;;;;0.70;0.70;;;;;;;15.10;76.82;98698.63;4951687;29;20047;-88
2022/07/10 03:00:32;;;;;;;1.10;1.00;;;;;;;15.13;77.03;98699.03;4956699;28;20071;-88
2022/07/10 03:02:59;;;;;;;1.20;1.10;;;;;;;15.05;76.46;98685.25;4951983;29;20669;-89
2022/07/10 03:05:25;;;;;;;1.98;1.10;;;;;;;15.05;76.26;98693.16;4952854;29;21715;-88
2022/07/10 03:07:52;;;;;;;2.58;1.50;;;;;;;14.94;76.04;98702.63;4943644;29;20463;-88
2022/07/10 03:10:19;;;;;;;1.40;1.30;;;;;;;14.91;75.83;98689.81;4958912;28;20476;-88
2022/07/10 03:12:46;;;;;;;1.83;1.38;;;;;;;14.73;76.05;98687.88;4952499;28;20086;-89
2022/07/10 03:15:14;;;;;;;1.23;1.13;;;;;;;14.78;76.77;98697.81;4940402;29;20071;-88
2022/07/10 03:17:40;;;;;;;1.10;1.02;;;;;;;14.76;76.94;98689.31;4936264;29;20384;-88
2022/07/10 03:20:26;;;;;;;1.23;1.13;;;;;;;14.62;76.46;98680.63;4941918;29;20129;-88
2022/07/10 03:22:53;;;;;;;1.00;0.95;;;;;;;14.64;76.29;98687.34;4945548;29;20039;-88
2022/07/10 03:25:20;;;;;;;1.15;0.90;;;;;;;14.73;77.47;98704.53;4949250;29;20071;-88
2022/07/10 03:27:47;;;;;;;0.90;0.90;;;;;;;14.64;76.41;98695.25;4948308;29;20479;-89
2022/07/10 03:30:14;;;;;;;1.30;1.20;;;;;;;14.60;76.62;98691.41;4944958;29;20492;-88
2022/07/10 03:32:41;;;;;;;1.33;1.15;;;;;;;14.62;76.92;98707.84;4950011;29;20044;-88
2022/07/10 03:35:08;;;;;;;1.35;1.00;;;;;;;14.68;77.47;98722.03;4945878;29;20130;-89
2022/07/10 03:37:34;;;;;;;1.13;1.02;;;;;;;14.59;77.13;98702.19;4953538;29;20095;-89
2022/07/10 03:40:01;;;;;;;1.10;1.00;;;;;;;14.61;78.20;98708.88;4936895;29;20075;-88
2022/07/10 03:42:27;;;;;;;0.90;0.90;;;;;;;14.67;77.89;98710.66;4953816;29;20046;-88
2022/07/10 03:44:54;;;;;;;1.25;0.73;;;;;;;14.69;77.42;98706.00;4955073;28;20131;-88
2022/07/10 03:47:21;;;;;;;0.90;0.90;;;;;;;14.69;77.60;98711.28;4943751;29;20067;-88
2022/07/10 03:49:47;;;;;;;0.75;0.75;;;;;;;14.68;77.40;98706.19;4938730;29;20377;-88
2022/07/10 03:52:14;;;;;;;1.10;0.80;;;;;;;14.71;77.89;98708.44;4951737;29;20427;-88
2022/07/10 03:54:41;;;;;;;0.75;0.75;;;;;;;14.73;77.45;98703.72;4968093;28;20089;-88
2022/07/10 03:59:53;;;;;;;0.80;0.80;;;;;;;14.67;77.73;98702.75;4942760;29;20102;-88
2022/07/10 04:02:19;;;;;;;1.20;0.80;;;;;;;14.55;76.38;98691.22;4947416;29;20043;-88
2022/07/10 04:04:46;;;;;;;0.77;0.73;;;;;;;14.50;76.76;98693.69;4950618;29;20047;-88
2022/07/10 04:07:13;;;;;;;0.82;0.82;;;;;;;14.50;76.89;98696.31;4930793;29;20040;-88
2022/07/10 04:09:39;;;;;;;0.90;0.90;;;;;;;14.50;77.53;98695.50;4958280;28;20074;-88
2022/07/10 04:12:06;;;;;;;0.80;0.80;;;;;;;14.41;76.26;98695.72;4962635;28;20073;-89
2022/07/10 04:14:33;;;;;;;1.15;1.10;;;;;;;14.34;76.33;98697.59;4952075;29;20142;-88
2022/07/10 04:17:00;;;;;;;1.02;0.90;;;;;;;14.32;76.48;98706.72;4935572;29;20085;-88
2022/07/10 04:19:26;;;;;;;1.08;0.77;;;;;;;14.33;77.17;98701.22;4960121;28;20111;-88
2022/07/10 04:21:53;;;;;;;2.95;1.10;;;;;;;14.15;75.63;98686.09;4942933;29;20039;-88
2022/07/10 04:24:20;;;;;;;1.90;0.90;;;;;;;14.16;75.56;98700.91;4951126;29;20043;-88
2022/07/10 04:26:47;;;;;;;0.80;0.80;;;;;;;14.16;76.63;98708.81;4955748;28;20091;-88
2022/07/10 04:29:13;;;;;;;0.77;0.77;;;;;;;14.08;75.87;98693.19;4935963;29;20047;-88
2022/07/10 04:31:40;;;;;;;1.33;1.00;;;;;;;14.02;75.52;98696.66;4943115;28;20473;-88
2022/07/10 04:34:07;;;;;;;2.72;1.20;;;;;;;13.92;74.93;98712.13;4941236;29;21071;-87
2022/07/10 04:36:34;;;;;;;2.25;1.00;;;;;;;13.83;73.53;98711.50;4943459;29;20460;-88
2022/07/10 04:39:00;;;;;;;1.55;1.00;;;;;;;13.90;75.13;98719.41;4943407;28;20111;-88
2022/07/10 04:41:27;;;;;;;1.60;0.90;;;;;;;13.93;74.48;98713.75;4942108;29;20499;-88
2022/07/10 04:43:54;;;;;;;1.00;0.90;;;;;;;13.89;75.07;98707.25;4946747;29;20488;-87
2022/07/10 04:46:20;;;;;;;0.80;0.80;;;;;;;13.88;74.96;98705.63;4951141;28;20139;-88
2022/07/10 04:48:48;;;;;;;0.70;0.70;;;;;;;14.02;74.23;98725.66;4949464;29;20058;-87
2022/07/10 04:51:15;;;;;;;1.38;1.17;;;;;;;13.87;72.36;98725.09;4945683;29;20047;-89
2022/07/10 04:53:41;;;;;;;1.05;0.90;;;;;;;13.78;74.72;98718.41;4952036;28;20098;-88
2022/07/10 04:56:08;;;;;;;2.42;1.38;;;;;;;13.83;73.77;98729.16;4948548;29;20469;-88
2022/07/10 04:58:35;;;;;;;1.00;1.00;;;;;;;13.80;72.17;98721.69;4947346;29;20479;-89
2022/07/10 05:01:02;;;;;;;2.08;1.13;;;;;;;13.82;73.81;98724.91;4932395;29;20142;-87
2022/07/10 05:03:29;;;;;;;0.90;0.80;;;;;;;13.91;72.59;98736.84;4946903;29;20074;-88
2022/07/10 05:05:56;;;;;;;1.83;1.08;;;;;;;13.89;73.72;98730.97;4934605;29;20081;-88
2022/07/10 05:08:23;;;;;;;1.10;0.93;;;;;;;13.95;71.68;98743.34;4948131;29;20408;-89
2022/07/10 05:10:49;;;;;;;1.08;0.90;;;;;;;14.05;73.42;98733.19;4942633;29;20071;-88
2022/07/10 05:13:16;;;;;;;0.90;0.90;;;;;;;14.16;72.76;98740.47;4941447;29;20036;-88
2022/07/10 05:15:46;;;;;;;1.40;0.90;;;;;;;14.29;72.15;98720.34;4932297;29;20048;-87
2022/07/10 05:18:13;;;;;;;3.97;1.10;;;;;;;14.40;69.73;98740.81;4935657;29;20074;-88
2022/07/10 05:20:52;;;;;;;2.22;1.20;;;;;;;14.44;70.38;98739.34;4965700;28;20043;-88
2022/07/10 05:23:19;;;;;;;1.15;0.90;;;;;;;14.41;69.41;98745.88;4950519;29;20090;-88
2022/07/10 05:25:45;;;;;;;2.28;0.90;;;;;;;14.40;67.75;98730.25;4954639;28;20043;-88
2022/07/10 05:28:15;;;;;;;1.33;0.77;;;;;;;14.60;68.19;98735.47;4951226;28;20106;-88
2022/07/10 05:30:42;;;;;;;1.73;0.90;;;;;;;14.65;65.04;98752.31;4951985;28;20051;-88
2022/07/10 05:33:09;;;;;;;1.05;0.80;;;;;;;14.65;65.21;98731.19;4951500;29;20050;-89
2022/07/10 05:35:36;;;;;;;2.03;0.80;;;;;;;14.65;63.97;98731.19;4961612;28;20094;-88
2022/07/10 05:38:03;;;;;;;1.45;0.70;;;;;;;14.68;63.66;98735.22;4951921;28;20173;-87
2022/07/10 05:40:29;;;;;;;1.60;0.80;;;;;;;14.75;63.06;98737.84;4948950;29;20043;-88
2022/07/10 05:42:56;;;;;;;1.95;0.80;;;;;;;14.91;64.53;98737.34;4964724;28;20044;-88
2022/07/10 05:45:23;;;;;;;4.50;0.82;;;;;;;14.94;61.62;98747.50;4954074;29;20094;-88
2022/07/10 05:47:50;;;;;;;1.20;0.65;;;;;;;15.11;62.76;98748.59;4954384;28;20157;-88
2022/07/10 05:50:16;;;;;;;0.93;0.73;;;;;;;15.23;63.03;98754.03;4960848;28;20074;-87
2022/07/10 05:52:43;;;;;;;1.10;0.70;;;;;;;15.30;61.34;98746.88;4944435;29;20086;-87
2022/07/10 05:55:10;;;;;;;2.33;0.95;;;;;;;15.44;61.68;98755.53;4948831;28;20113;-87
2022/07/10 05:57:37;;;;;;;1.80;0.60;;;;;;;15.38;60.51;98743.16;4952753;29;20047;-86
2022/07/10 06:00:06;;;;;;;1.15;0.63;;;;;;;15.61;60.64;98759.25;4947904;28;20051;-88
2022/07/10 06:02:32;;;;;;;0.80;0.80;;;;;;;15.82;62.50;98746.69;4948733;29;20071;-87
2022/07/10 06:04:59;;;;;;;0.88;0.73;;;;;;;15.92;60.31;98754.94;4955269;28;20548;-87
2022/07/10 06:07:27;;;;;;;0.50;0.50;;;;;;;16.16;59.97;98740.88;4948952;28;20051;-87
2022/07/10 06:09:55;;;;;;;2.25;0.90;;;;;;;16.14;57.85;98753.53;4937905;29;20071;-87
2022/07/10 06:12:22;;;;;;;0.60;0.60;;;;;;;16.26;58.45;98740.38;4951941;28;20094;-87
2022/07/10 06:14:49;;;;;;;1.10;0.90;;;;;;;16.47;59.52;98757.63;4956665;28;20089;-86
2022/07/10 06:17:16;;;;;;;1.75;0.90;;;;;;;16.48;59.00;98736.22;4939564;28;20083;-87
2022/07/10 06:19:42;;;;;;;1.20;0.82;;;;;;;16.68;57.11;98753.75;4950572;28;20047;-87
2022/07/10 06:24:55;;;;;;;0.88;0.70;;;;;;;16.39;57.75;98748.16;4954744;28;20078;-87
2022/07/10 06:27:22;;;;;;;1.05;0.70;;;;;;;16.14;60.12;98750.88;4950882;28;20071;-87
2022/07/10 06:29:48;;;;;;;1.38;0.70;;;;;;;16.19;61.14;98758.13;4955219;28;20097;-86
2022/07/10 06:32:15;;;;;;;1.48;0.68;;;;;;;16.11;60.48;98750.50;4952565;29;20078;-88
2022/07/10 06:34:42;;;;;;;1.33;0.80;;;;;;;16.25;58.96;98755.44;4954500;29;20577;-87
2022/07/10 06:37:12;;;;;;;1.08;0.70;;;;;;;16.39;60.15;98745.50;4951555;28;20094;-85
2022/07/10 06:39:39;;;;;;;2.38;0.80;;;;;;;16.33;57.61;98755.16;4952342;29;20492;-85
2022/07/10 06:42:06;;;;;;;0.75;0.70;;;;;;;16.69;59.95;98742.91;4952423;28;20435;-85
2022/07/10 06:44:33;;;;;;;1.30;0.63;;;;;;;16.82;57.83;98750.72;4945915;28;20793;-85
2022/07/10 06:49:48;;;;;;;0.95;0.70;;;;;;;17.02;55.26;98750.44;4946141;29;20071;-86
2022/07/10 06:52:16;;;;;;;2.75;0.70;;;;;;;17.17;54.62;98762.50;4949273;29;20484;-86
2022/07/10 06:54:43;;;;;;;1.08;0.60;;;;;;;17.13;53.97;98751.53;4961223;28;20103;-86
2022/07/10 06:57:10;;;;;;;1.10;0.70;;;;;;;17.45;52.18;98759.19;4939820;29;20067;-85
2022/07/10 06:59:37;;;;;;;2.28;0.52;;;;;;;17.71;53.08;98752.69;4945763;29;20043;-85
2022/07/10 07:02:04;;;;;;;0.50;0.50;;;;;;;18.13;50.47;98750.75;4953587;29;20047;-84
2022/07/10 07:04:31;;;;;;;0.52;0.50;;;;;;;18.41;49.14;98761.47;4946547;28;20047;-85
2022/07/10 07:06:58;;;;;;;2.08;0.60;;;;;;;18.45;47.69;98749.31;4939105;29;20086;-85
2022/07/10 07:09:25;;;;;;;0.90;0.50;;;;;;;17.80;49.12;98757.44;4952143;28;20047;-86
2022/07/10 07:11:51;;;;;;;0.85;0.38;;;;;;;17.38;49.19;98754.00;4952775;29;20097;-84
2022/07/10 07:14:18;;;;;;;1.13;0.50;;;;;;;17.23;52.52;98767.69;4952237;29;20090;-86
2022/07/10 07:16:46;;;;;;;0.88;0.40;;;;;;;17.15;53.20;98765.34;4936937;29;20055;-85
2022/07/10 07:19:30;;;;;;;0.47;0.47;;;;;;;17.12;52.94;98768.47;4938837;29;20564;-85
2022/07/10 07:24:52;;;;;;;0.85;0.50;;;;;;;17.67;49.95;98758.44;4953539;29;20058;-86
2022/07/10 07:27:19;;;;;;;0.47;0.40;;;;;;;17.69;51.77;98750.25;4961842;28;20119;-85
2022/07/10 07:29:45;;;;;;;2.50;0.70;;;;;;;17.38;47.52;98754.81;4963147;28;20044;-85
2022/07/10 07:32:12;;;;;;;0.38;0.30;;;;;;;17.43;50.73;98755.97;4948860;28;20566;-86
2022/07/10 07:34:39;;;;;;;0.40;0.40;;;;;;;17.36;51.48;98766.69;4941904;28;20082;-86
2022/07/10 07:37:05;;;;;;;1.00;0.40;;;;;;;17.20;50.69;98757.53;4952214;29;20079;-86
2022/07/10 07:39:33;;;;;;;0.93;0.40;;;;;;;17.08;50.28;98764.63;4953284;28;20126;-86
2022/07/10 07:42:00;;;;;;;1.38;0.50;;;;;;;16.87;49.97;98762.50;4948899;28;20086;-86
2022/07/10 07:44:26;;;;;;;0.40;0.40;;;;;;;17.20;50.22;98776.09;4952314;29;20047;-85
2022/07/10 07:46:56;;;;;;;0.80;0.40;;;;;;;17.52;49.05;98771.34;4947747;28;20561;-86
2022/07/10 07:49:22;;;;;;;1.02;0.50;;;;;;;17.44;49.26;98773.50;4958065;28;20086;-87
2022/07/10 07:51:50;;;;;;;0.30;0.30;;;;;;;17.65;52.02;98783.59;4943424;29;20487;-86
2022/07/10 07:54:16;;;;;;;0.98;0.50;;;;;;;17.67;49.85;98778.84;4941616;29;20082;-87
2022/07/10 07:56:43;;;;;;;0.85;0.43;;;;;;;17.50;47.37;98769.94;4944323;28;20133;-86
2022/07/10 07:59:10;;;;;;;0.30;0.30;;;;;;;17.62;49.18;98776.06;4953022;28;20074;-86
2022/07/10 08:01:37;;;;;;;0.57;0.50;;;;;;;17.46;48.15;98771.44;4951919;29;20075;-87
2022/07/10 08:04:04;;;;;;;1.45;0.40;;;;;;;17.55;48.91;98776.19;4941879;28;20447;-86
2022/07/10 08:06:36;;;;;;;0.57;0.28;;;;;;;17.71;50.22;98785.31;4951966;29;20053;-86
2022/07/10 08:09:02;;;;;;;0.40;0.30;;;;;;;17.43;49.01;98767.41;4948797;28;20051;-87
2022/07/10 08:11:29;;;;;;;0.85;0.40;;;;;;;17.52;49.02;98787.25;4942489;29;20047;-85
2022/07/10 08:13:56;;;;;;;2.05;0.52;;;;;;;17.57;49.51;98775.94;4951879;28;20484;-86
2022/07/10 08:16:22;;;;;;;1.58;0.38;;;;;;;17.85;49.12;98770.81;4941890;29;20388;-86
2022/07/10 08:18:50;;;;;;;0.20;0.20;;;;;;;18.21;47.23;98773.47;4946799;28;20534;-86
2022/07/10 08:21:34;;;;;;;1.58;0.40;;;;;;;18.23;46.70;98768.75;4940219;29;20039;-86
2022/07/10 08:24:01;;;;;;;0.80;0.47;;;;;;;18.21;47.68;98768.16;4946072;29;20492;-86
2022/07/10 08:26:27;;;;;;;0.30;0.30;;;;;;;18.25;48.39;98770.13;4952833;28;20035;-86
2022/07/10 08:28:54;;;;;;;1.25;0.60;;;;;;;18.71;46.11;98763.97;4948353;29;20059;-86
2022/07/10 08:31:21;;;;;;;0.32;0.30;;;;;;;19.15;45.90;98779.41;4937697;29;20047;-86
2022/07/10 08:33:48;;;;;;;0.40;0.30;;;;;;;19.22;47.42;98761.44;4934358;29;20043;-87
2022/07/10 08:36:15;;;;;;;0.30;0.30;;;;;;;19.31;45.23;98762.66;4947370;28;20098;-86
2022/07/10 08:39:01;;;;;;;0.30;0.30;;;;;;;19.17;44.39;98771.97;4952257;28;20142;-88
2022/07/10 08:41:31;;;;;;;0.40;0.30;;;;;;;19.14;45.10;98762.63;4952958;28;20047;-86
2022/07/10 08:43:58;;;;;;;1.08;0.25;;;;;;;19.39;44.83;98762.28;4967324;28;20479;-86
2022/07/10 08:46:27;;;;;;;0.45;0.22;;;;;;;19.53;43.90;98765.41;4952747;28;20110;-86
2022/07/10 08:49:00;;;;;;;0.30;0.28;;;;;;;19.45;44.13;98766.63;4951081;29;20044;-86
2022/07/10 08:52:03;;;;;;;0.80;0.20;;;;;;;19.13;44.54;98776.16;4942094;28;20047;-86
2022/07/10 08:54:32;;;;;;;0.68;0.47;;;;;;;18.89;47.52;98778.94;4934315;29;20114;-86
2022/07/10 08:57:02;;;;;;;0.20;0.20;;;;;;;18.75;45.88;98780.22;4959939;28;20039;-86
2022/07/10 08:59:29;;;;;;;0.55;0.30;;;;;;;18.63;44.54;98776.75;4949270;28;20067;-86
2022/07/10 09:01:58;;;;;;;1.20;0.20;;;;;;;18.52;44.82;98780.25;4929094;29;20423;-86
2022/07/10 09:04:27;;;;;;;0.30;0.20;;;;;;;18.66;45.64;98771.00;4938938;28;20072;-86
2022/07/10 09:06:55;;;;;;;0.20;0.20;;;;;;;18.75;47.97;98779.41;4951377;28;20043;-86
2022/07/10 09:09:24;;;;;;;0.22;0.22;;;;;;;18.81;47.23;98773.97;4952159;29;20105;-88
2022/07/10 09:11:57;;;;;;;0.30;0.30;;;;;;;18.98;45.31;98774.84;4936137;29;20048;-87
2022/07/10 09:14:27;;;;;;;0.88;0.30;;;;;;;18.85;46.26;98769.81;4955528;29;20043;-86
2022/07/10 09:17:01;;;;;;;0.55;0.50;;;;;;;18.93;46.35;98774.72;4956377;28;20097;-86
2022/07/10 09:19:29;;;;;;;0.20;0.20;;;;;;;19.07;46.21;98782.41;4947356;29;20082;-87
2022/07/10 09:22:08;;;;;;;0.20;0.20;;;;;;;19.20;46.86;98787.47;4946835;28;20055;-87
2022/07/10 09:24:46;;;;;;;0.45;0.20;;;;;;;18.80;46.00;98782.97;4948914;29;20039;-86
2022/07/10 09:27:15;;;;;;;2.97;0.50;;;;;;;18.62;44.60;98772.50;4947437;28;20107;-85
2022/07/10 09:29:54;;;;;;;0.38;0.38;;;;;;;18.59;46.66;98780.91;4947458;29;20094;-85
2022/07/10 09:32:21;;;;;;;1.00;0.30;;;;;;;18.52;46.02;98782.91;4944723;29;20074;-85
2022/07/10 09:36:04;;;;;;;0.10;0.10;;;;;;;18.43;47.01;98788.59;4951169;29;20043;-85
2022/07/10 09:37:43;;;;;;;0.30;0.30;;;;;;;18.60;46.15;98787.88;4950609;29;20110;-85
2022/07/10 09:40:10;;;;;;;0.30;0.30;;;;;;;18.78;46.29;98790.41;4953412;29;20098;-84
2022/07/10 09:42:39;;;;;;;0.30;0.30;;;;;;;18.86;46.25;98787.34;4946659;29;20078;-86
2022/07/10 09:45:12;;;;;;;0.70;0.22;;;;;;;18.95;47.35;98791.28;4948828;29;20082;-85
2022/07/10 09:47:40;;;;;;;0.20;0.20;;;;;;;18.86;48.01;98787.34;4944728;29;20119;-85
2022/07/10 09:50:31;;;;;;;1.50;0.40;;;;;;;18.54;45.87;98794.94;4948189;28;20054;-85
2022/07/10 09:53:04;;;;;;;0.30;0.30;;;;;;;18.46;46.61;98788.09;4962099;28;20039;-84
2022/07/10 09:55:35;;;;;;;1.13;0.57;;;;;;;18.44;46.04;98787.53;4947660;28;20073;-85
2022/07/10 09:58:08;;;;;;;0.73;0.43;;;;;;;18.61;47.77;98792.13;4960899;28;20446;-85
2022/07/10 10:00:40;;;;;;;0.30;0.30;;;;;;;18.82;47.43;98790.72;4943012;29;20128;-85
2022/07/10 10:03:11;;;;;;;0.65;0.40;;;;;;;18.83;48.19;98798.47;4942337;29;20091;-85
2022/07/10 10:06:10;;;;;;;1.27;0.50;;;;;;;18.84;45.25;98788.66;4954091;29;20048;-86
2022/07/10 10:08:56;;;;;;;1.00;0.50;;;;;;;18.94;48.10;98789.63;4953660;29;20099;-84
2022/07/10 10:11:27;;;;;;;0.40;0.40;;;;;;;19.10;46.90;98788.06;4952125;28;20499;-84
2022/07/10 10:13:54;;;;;;;0.63;0.40;;;;;;;19.07;45.37;98785.06;4957192;28;20086;-85
2022/07/10 10:16:22;;;;;;;0.55;0.40;;;;;;;19.32;47.61;98774.91;4947896;29;20086;-84
2022/07/10 10:21:44;;;;;;;1.48;0.40;;;;;;;19.56;45.68;98766.81;4954046;28;20050;-85
2022/07/10 10:24:14;;;;;;;1.65;1.00;;;;;;;19.32;44.66;98780.25;4950426;29;20078;-87
2022/07/10 10:26:44;;;;;;;0.65;0.65;;;;;;;19.83;45.37;98775.78;4952534;28;20090;-85
2022/07/10 10:29:12;;;;;;;1.38;0.75;;;;;;;20.47;44.11;98760.19;4954142;28;20451;-85
2022/07/10 10:31:40;;;;;;;1.13;0.50;;;;;;;20.81;43.45;98768.03;4953553;28;20051;-85
2022/07/10 10:34:07;;;;;;;1.95;0.60;;;;;;;20.52;42.32;98773.59;4969470;28;20654;-85
2022/07/10 10:36:36;;;;;;;1.50;0.70;;;;;;;19.84;44.68;98765.94;4949973;29;20597;-86
2022/07/10 10:39:16;;;;;;;1.20;0.40;;;;;;;19.47;45.60;98769.84;4943392;29;20054;-86
2022/07/10 10:41:54;;;;;;;0.70;0.50;;;;;;;19.27;45.30;98766.03;4953662;29;20047;-85
2022/07/10 10:44:26;;;;;;;1.20;0.60;;;;;;;19.17;44.90;98774.63;4947880;28;20067;-85
2022/07/10 10:47:05;;;;;;;1.45;0.70;;;;;;;19.24;45.37;98767.31;4954454;28;20099;-84
2022/07/10 10:50:08;;;;;;;0.80;0.70;;;;;;;19.56;44.95;98780.09;4949357;28;20043;-85
2022/07/10 10:52:35;;;;;;;1.42;0.80;;;;;;;19.56;45.56;98764.16;4931948;29;20054;-85
2022/07/10 10:55:07;;;;;;;0.80;0.60;;;;;;;19.67;45.24;98779.22;4948212;29;20071;-86
2022/07/10 10:57:40;;;;;;;0.60;0.50;;;;;;;19.66;45.04;98774.97;4947421;29;20048;-86
2022/07/10 11:00:08;;;;;;;2.10;0.80;;;;;;;19.53;45.24;98776.84;4948408;29;20054;-85
2022/07/10 11:02:40;;;;;;;1.25;0.45;;;;;;;19.77;46.35;98779.41;4952874;28;20633;-86
2022/07/10 11:08:04;;;;;;;1.27;0.70;;;;;;;20.13;43.03;98771.94;4947397;29;20079;-85
2022/07/10 11:10:35;;;;;;;1.20;0.70;;;;;;;19.81;43.54;98771.75;4947901;28;20129;-85
2022/07/10 11:13:05;;;;;;;1.45;0.65;;;;;;;19.80;44.75;98770.94;4945598;29;20070;-85
2022/07/10 11:15:37;;;;;;;1.58;0.57;;;;;;;19.70;46.14;98773.44;4964561;28;20106;-86
2022/07/10 11:18:14;;;;;;;0.40;0.40;;;;;;;19.68;44.90;98770.22;4944787;28;20047;-85
2022/07/10 11:20:53;;;;;;;1.02;0.65;;;;;;;19.50;43.17;98769.38;4938773;28;20048;-84
2022/07/10 11:24:21;;;;;;;0.40;0.40;;;;;;;19.73;45.02;98764.97;4947903;29;20050;-85
2022/07/10 11:27:20;;;;;;;0.93;0.47;;;;;;;19.99;43.33;98780.28;4943596;28;20078;-86
2022/07/10 11:29:48;;;;;;;0.82;0.50;;;;;;;19.97;42.91;98761.09;4946583;28;20079;-86
2022/07/10 11:32:20;;;;;;;0.50;0.40;;;;;;;19.85;42.52;98763.03;4942133;29;20454;-84
2022/07/10 11:34:48;;;;;;;0.43;0.40;;;;;;;19.48;43.13;98771.44;4941988;29;20483;-86
2022/07/10 11:37:16;;;;;;;1.00;0.40;;;;;;;19.71;47.48;98773.19;4942917;28;20070;-86
2022/07/10 11:39:43;;;;;;;0.68;0.50;;;;;;;19.52;42.66;98764.63;4942504;29;20463;-86
2022/07/10 11:42:10;;;;;;;1.02;0.40;;;;;;;19.61;44.82;98761.56;4946765;28;20097;-85
2022/07/10 11:44:37;;;;;;;0.65;0.30;;;;;;;20.05;45.90;98768.66;4942436;29;20074;-86
2022/07/10 11:47:04;;;;;;;0.35;0.30;;;;;;;20.36;44.21;98763.75;4943243;28;20401;-84
2022/07/10 11:49:32;;;;;;;0.30;0.30;;;;;;;20.59;43.10;98773.41;4945544;28;20059;-86
2022/07/10 11:52:04;;;;;;;0.30;0.30;;;;;;;20.77;43.66;98769.63;4940764;28;20074;-87
2022/07/10 11:54:31;;;;;;;0.30;0.30;;;;;;;20.21;41.27;98756.38;4944231;29;20071;-84
2022/07/10 11:57:06;;;;;;;1.58;0.30;;;;;;;20.18;42.62;98754.19;4941299;28;20039;-85
2022/07/10 11:59:33;;;;;;;0.43;0.43;;;;;;;20.02;40.81;98771.00;4943032;29;20051;-85
2022/07/10 12:02:00;;;;;;;0.73;0.40;;;;;;;20.26;44.31;98764.41;4941203;28;20332;-85